Aviation Digital Data Service (ADDS)

Output produced by METARs form (1057 UTC 25 April 2015)
found at http://aviationweather.gov/adds/metars/
 
KDET 250527Z 2506/2606 10004KT P6SM BKN080 OVC150 
     FM251000 11006KT P6SM OVC090 
     FM251900 07008KT P6SM OVC120 
     FM260000 04010KT P6SM BKN150